sensor_id;sensor_type;location;lat;lon;timestamp;P1;durP1;ratioP1;P2;durP2;ratioP2
70967;SDS011;58629;48.808;8.820;2023-12-14T00:00:30;1.80;;;0.80;;
70967;SDS011;58629;48.808;8.820;2023-12-14T00:02:56;1.67;;;0.80;;
70967;SDS011;58629;48.808;8.820;2023-12-14T00:05:21;1.70;;;0.90;;
70967;SDS011;58629;48.808;8.820;2023-12-14T00:07:48;1.70;;;0.88;;
70967;SDS011;58629;48.808;8.820;2023-12-14T00:10:13;1.03;;;0.60;;
70967;SDS011;58629;48.808;8.820;2023-12-14T00:12:39;1.43;;;0.80;;
70967;SDS011;58629;48.808;8.820;2023-12-14T00:15:05;1.20;;;0.77;;
70967;SDS011;58629;48.808;8.820;2023-12-14T00:17:31;1.35;;;0.75;;
70967;SDS011;58629;48.808;8.820;2023-12-14T00:19:56;1.20;;;0.70;;
70967;SDS011;58629;48.808;8.820;2023-12-14T00:22:21;1.60;;;0.70;;
70967;SDS011;58629;48.808;8.820;2023-12-14T00:24:47;1.20;;;0.60;;
70967;SDS011;58629;48.808;8.820;2023-12-14T00:27:12;1.40;;;0.60;;
70967;SDS011;58629;48.808;8.820;2023-12-14T00:29:37;1.53;;;0.67;;
70967;SDS011;58629;48.808;8.820;2023-12-14T00:32:03;1.27;;;0.57;;
70967;SDS011;58629;48.808;8.820;2023-12-14T00:34:29;1.10;;;0.50;;
70967;SDS011;58629;48.808;8.820;2023-12-14T00:36:54;0.80;;;0.50;;
70967;SDS011;58629;48.808;8.820;2023-12-14T00:39:19;1.10;;;0.50;;
70967;SDS011;58629;48.808;8.820;2023-12-14T00:41:45;0.70;;;0.47;;
70967;SDS011;58629;48.808;8.820;2023-12-14T00:44:10;1.00;;;0.50;;
70967;SDS011;58629;48.808;8.820;2023-12-14T00:46:35;1.37;;;0.50;;
70967;SDS011;58629;48.808;8.820;2023-12-14T00:49:01;0.77;;;0.40;;
70967;SDS011;58629;48.808;8.820;2023-12-14T00:51:27;1.17;;;0.65;;
70967;SDS011;58629;48.808;8.820;2023-12-14T00:53:52;1.50;;;0.60;;
70967;SDS011;58629;48.808;8.820;2023-12-14T00:56:18;2.10;;;0.98;;
70967;SDS011;58629;48.808;8.820;2023-12-14T00:58:43;1.93;;;1.00;;
70967;SDS011;58629;48.808;8.820;2023-12-14T01:01:08;1.53;;;1.00;;
70967;SDS011;58629;48.808;8.820;2023-12-14T01:03:34;1.43;;;0.73;;
70967;SDS011;58629;48.808;8.820;2023-12-14T01:05:59;1.87;;;0.90;;
70967;SDS011;58629;48.808;8.820;2023-12-14T01:08:24;1.37;;;0.80;;
70967;SDS011;58629;48.808;8.820;2023-12-14T01:10:50;1.57;;;1.00;;
70967;SDS011;58629;48.808;8.820;2023-12-14T01:13:15;1.70;;;0.80;;
70967;SDS011;58629;48.808;8.820;2023-12-14T01:15:41;1.63;;;0.80;;
70967;SDS011;58629;48.808;8.820;2023-12-14T01:18:06;1.07;;;0.40;;
70967;SDS011;58629;48.808;8.820;2023-12-14T01:20:31;1.13;;;0.60;;
70967;SDS011;58629;48.808;8.820;2023-12-14T01:22:57;1.67;;;0.70;;
70967;SDS011;58629;48.808;8.820;2023-12-14T01:25:22;1.13;;;0.60;;
70967;SDS011;58629;48.808;8.820;2023-12-14T01:27:47;1.23;;;0.50;;
70967;SDS011;58629;48.808;8.820;2023-12-14T01:30:13;0.90;;;0.52;;
70967;SDS011;58629;48.808;8.820;2023-12-14T01:32:38;1.43;;;0.60;;
70967;SDS011;58629;48.808;8.820;2023-12-14T01:35:04;1.70;;;0.60;;
70967;SDS011;58629;48.808;8.820;2023-12-14T01:37:30;1.33;;;0.50;;
70967;SDS011;58629;48.808;8.820;2023-12-14T01:39:55;1.10;;;0.50;;
70967;SDS011;58629;48.808;8.820;2023-12-14T01:42:20;0.97;;;0.40;;
70967;SDS011;58629;48.808;8.820;2023-12-14T01:44:46;0.70;;;0.30;;
70967;SDS011;58629;48.808;8.820;2023-12-14T01:47:11;0.93;;;0.30;;
70967;SDS011;58629;48.808;8.820;2023-12-14T01:49:36;0.60;;;0.30;;
70967;SDS011;58629;48.808;8.820;2023-12-14T01:52:02;0.70;;;0.30;;
70967;SDS011;58629;48.808;8.820;2023-12-14T01:54:27;1.20;;;0.40;;
70967;SDS011;58629;48.808;8.820;2023-12-14T01:56:53;0.30;;;0.20;;
70967;SDS011;58629;48.808;8.820;2023-12-14T01:59:19;0.60;;;0.30;;
70967;SDS011;58629;48.808;8.820;2023-12-14T02:01:45;0.83;;;0.23;;
70967;SDS011;58629;48.808;8.820;2023-12-14T02:04:17;0.40;;;0.20;;
70967;SDS011;58629;48.808;8.820;2023-12-14T02:06:42;0.43;;;0.20;;
70967;SDS011;58629;48.808;8.820;2023-12-14T02:09:07;0.60;;;0.30;;
70967;SDS011;58629;48.808;8.820;2023-12-14T02:11:33;0.30;;;0.20;;
70967;SDS011;58629;48.808;8.820;2023-12-14T02:14:02;0.55;;;0.30;;
70967;SDS011;58629;48.808;8.820;2023-12-14T02:16:28;0.70;;;0.30;;
70967;SDS011;58629;48.808;8.820;2023-12-14T02:18:54;0.38;;;0.17;;
70967;SDS011;58629;48.808;8.820;2023-12-14T02:21:19;0.70;;;0.30;;
70967;SDS011;58629;48.808;8.820;2023-12-14T02:23:45;0.70;;;0.40;;
70967;SDS011;58629;48.808;8.820;2023-12-14T02:26:13;0.75;;;0.38;;
70967;SDS011;58629;48.808;8.820;2023-12-14T02:28:39;0.47;;;0.30;;
70967;SDS011;58629;48.808;8.820;2023-12-14T02:31:05;0.85;;;0.38;;
70967;SDS011;58629;48.808;8.820;2023-12-14T02:33:30;0.80;;;0.40;;
70967;SDS011;58629;48.808;8.820;2023-12-14T02:35:56;0.60;;;0.40;;
70967;SDS011;58629;48.808;8.820;2023-12-14T02:38:21;0.88;;;0.40;;
70967;SDS011;58629;48.808;8.820;2023-12-14T02:40:46;1.17;;;0.60;;
70967;SDS011;58629;48.808;8.820;2023-12-14T02:43:12;0.70;;;0.40;;
70967;SDS011;58629;48.808;8.820;2023-12-14T02:45:38;0.93;;;0.50;;
70967;SDS011;58629;48.808;8.820;2023-12-14T02:48:03;0.60;;;0.32;;
70967;SDS011;58629;48.808;8.820;2023-12-14T02:50:29;0.60;;;0.20;;
70967;SDS011;58629;48.808;8.820;2023-12-14T02:52:55;0.90;;;0.50;;
70967;SDS011;58629;48.808;8.820;2023-12-14T02:55:20;1.10;;;0.60;;
70967;SDS011;58629;48.808;8.820;2023-12-14T02:57:46;0.83;;;0.47;;
70967;SDS011;58629;48.808;8.820;2023-12-14T03:00:11;0.77;;;0.60;;
70967;SDS011;58629;48.808;8.820;2023-12-14T03:02:37;0.88;;;0.60;;
70967;SDS011;58629;48.808;8.820;2023-12-14T03:05:02;0.80;;;0.43;;
70967;SDS011;58629;48.808;8.820;2023-12-14T03:07:28;0.80;;;0.50;;
70967;SDS011;58629;48.808;8.820;2023-12-14T03:09:53;0.80;;;0.40;;
70967;SDS011;58629;48.808;8.820;2023-12-14T03:12:19;0.90;;;0.50;;
70967;SDS011;58629;48.808;8.820;2023-12-14T03:14:44;0.80;;;0.50;;
70967;SDS011;58629;48.808;8.820;2023-12-14T03:17:09;1.57;;;0.60;;
70967;SDS011;58629;48.808;8.820;2023-12-14T03:19:38;1.45;;;0.50;;
70967;SDS011;58629;48.808;8.820;2023-12-14T03:22:05;0.50;;;0.40;;
70967;SDS011;58629;48.808;8.820;2023-12-14T03:24:30;0.60;;;0.40;;
70967;SDS011;58629;48.808;8.820;2023-12-14T03:26:55;0.77;;;0.30;;
70967;SDS011;58629;48.808;8.820;2023-12-14T03:29:21;0.65;;;0.22;;
70967;SDS011;58629;48.808;8.820;2023-12-14T03:31:46;0.65;;;0.25;;
70967;SDS011;58629;48.808;8.820;2023-12-14T03:34:12;0.90;;;0.20;;
70967;SDS011;58629;48.808;8.820;2023-12-14T03:36:37;0.90;;;0.50;;
70967;SDS011;58629;48.808;8.820;2023-12-14T03:39:03;0.60;;;0.30;;
70967;SDS011;58629;48.808;8.820;2023-12-14T03:41:28;0.70;;;0.50;;
70967;SDS011;58629;48.808;8.820;2023-12-14T03:43:53;0.77;;;0.50;;
70967;SDS011;58629;48.808;8.820;2023-12-14T03:46:19;0.53;;;0.30;;
70967;SDS011;58629;48.808;8.820;2023-12-14T03:48:44;0.83;;;0.40;;
70967;SDS011;58629;48.808;8.820;2023-12-14T03:51:10;0.83;;;0.50;;
70967;SDS011;58629;48.808;8.820;2023-12-14T03:53:35;1.75;;;0.90;;
70967;SDS011;58629;48.808;8.820;2023-12-14T03:56:00;1.10;;;0.60;;
70967;SDS011;58629;48.808;8.820;2023-12-14T03:58:26;0.97;;;0.70;;
70967;SDS011;58629;48.808;8.820;2023-12-14T04:00:51;1.57;;;0.60;;
70967;SDS011;58629;48.808;8.820;2023-12-14T04:03:17;1.10;;;0.60;;
70967;SDS011;58629;48.808;8.820;2023-12-14T04:05:43;0.70;;;0.50;;
70967;SDS011;58629;48.808;8.820;2023-12-14T04:08:09;0.65;;;0.50;;
70967;SDS011;58629;48.808;8.820;2023-12-14T04:10:34;2.50;;;0.50;;
70967;SDS011;58629;48.808;8.820;2023-12-14T04:13:00;0.70;;;0.40;;
70967;SDS011;58629;48.808;8.820;2023-12-14T04:15:25;0.60;;;0.40;;
70967;SDS011;58629;48.808;8.820;2023-12-14T04:17:51;0.60;;;0.30;;
70967;SDS011;58629;48.808;8.820;2023-12-14T04:20:16;0.90;;;0.50;;
70967;SDS011;58629;48.808;8.820;2023-12-14T04:22:42;0.70;;;0.50;;
70967;SDS011;58629;48.808;8.820;2023-12-14T04:25:09;0.63;;;0.40;;
70967;SDS011;58629;48.808;8.820;2023-12-14T04:27:34;0.60;;;0.30;;
70967;SDS011;58629;48.808;8.820;2023-12-14T04:29:59;0.70;;;0.30;;
70967;SDS011;58629;48.808;8.820;2023-12-14T04:32:25;0.60;;;0.30;;
70967;SDS011;58629;48.808;8.820;2023-12-14T04:34:50;0.70;;;0.37;;
70967;SDS011;58629;48.808;8.820;2023-12-14T04:37:15;0.57;;;0.30;;
70967;SDS011;58629;48.808;8.820;2023-12-14T04:39:41;0.45;;;0.28;;
70967;SDS011;58629;48.808;8.820;2023-12-14T04:42:06;0.68;;;0.30;;
70967;SDS011;58629;48.808;8.820;2023-12-14T04:44:32;0.90;;;0.50;;
70967;SDS011;58629;48.808;8.820;2023-12-14T04:46:57;0.30;;;0.30;;
70967;SDS011;58629;48.808;8.820;2023-12-14T04:49:22;0.70;;;0.40;;
70967;SDS011;58629;48.808;8.820;2023-12-14T04:51:48;0.50;;;0.40;;
70967;SDS011;58629;48.808;8.820;2023-12-14T04:54:13;0.50;;;0.30;;
70967;SDS011;58629;48.808;8.820;2023-12-14T04:56:38;0.50;;;0.33;;
70967;SDS011;58629;48.808;8.820;2023-12-14T04:59:04;0.60;;;0.40;;
70967;SDS011;58629;48.808;8.820;2023-12-14T05:01:29;1.30;;;0.45;;
70967;SDS011;58629;48.808;8.820;2023-12-14T05:03:54;1.17;;;0.60;;
70967;SDS011;58629;48.808;8.820;2023-12-14T05:06:20;0.90;;;0.57;;
70967;SDS011;58629;48.808;8.820;2023-12-14T05:08:46;1.70;;;0.70;;
70967;SDS011;58629;48.808;8.820;2023-12-14T05:11:14;0.93;;;0.60;;
70967;SDS011;58629;48.808;8.820;2023-12-14T05:13:40;1.98;;;1.23;;
70967;SDS011;58629;48.808;8.820;2023-12-14T05:16:06;1.53;;;0.60;;
70967;SDS011;58629;48.808;8.820;2023-12-14T05:18:32;1.02;;;0.70;;
70967;SDS011;58629;48.808;8.820;2023-12-14T05:20:57;3.53;;;1.97;;
70967;SDS011;58629;48.808;8.820;2023-12-14T05:23:23;2.60;;;1.60;;
70967;SDS011;58629;48.808;8.820;2023-12-14T05:25:49;2.10;;;1.20;;
70967;SDS011;58629;48.808;8.820;2023-12-14T05:28:15;2.05;;;1.20;;
70967;SDS011;58629;48.808;8.820;2023-12-14T05:30:40;2.55;;;1.55;;
70967;SDS011;58629;48.808;8.820;2023-12-14T05:33:06;3.20;;;1.70;;
70967;SDS011;58629;48.808;8.820;2023-12-14T05:35:32;2.80;;;1.52;;
70967;SDS011;58629;48.808;8.820;2023-12-14T05:37:57;1.90;;;1.20;;
70967;SDS011;58629;48.808;8.820;2023-12-14T05:40:23;3.30;;;1.40;;
70967;SDS011;58629;48.808;8.820;2023-12-14T05:42:48;2.22;;;1.40;;
70967;SDS011;58629;48.808;8.820;2023-12-14T05:45:13;2.37;;;1.30;;
70967;SDS011;58629;48.808;8.820;2023-12-14T05:47:39;2.27;;;1.47;;
70967;SDS011;58629;48.808;8.820;2023-12-14T05:50:06;2.00;;;1.30;;
70967;SDS011;58629;48.808;8.820;2023-12-14T05:52:34;2.15;;;1.20;;
70967;SDS011;58629;48.808;8.820;2023-12-14T05:54:59;2.07;;;1.20;;
70967;SDS011;58629;48.808;8.820;2023-12-14T05:57:25;1.37;;;0.87;;
70967;SDS011;58629;48.808;8.820;2023-12-14T05:59:50;2.20;;;1.03;;
70967;SDS011;58629;48.808;8.820;2023-12-14T06:02:16;2.13;;;1.20;;
70967;SDS011;58629;48.808;8.820;2023-12-14T06:04:41;3.77;;;1.70;;
70967;SDS011;58629;48.808;8.820;2023-12-14T06:07:07;3.47;;;1.60;;
70967;SDS011;58629;48.808;8.820;2023-12-14T06:09:32;3.17;;;1.33;;
70967;SDS011;58629;48.808;8.820;2023-12-14T06:12:01;2.55;;;1.20;;
70967;SDS011;58629;48.808;8.820;2023-12-14T06:14:27;3.42;;;1.30;;
70967;SDS011;58629;48.808;8.820;2023-12-14T06:16:53;2.73;;;1.40;;
70967;SDS011;58629;48.808;8.820;2023-12-14T06:19:18;2.47;;;1.10;;
70967;SDS011;58629;48.808;8.820;2023-12-14T06:21:43;2.77;;;1.10;;
70967;SDS011;58629;48.808;8.820;2023-12-14T06:24:09;2.70;;;1.20;;
70967;SDS011;58629;48.808;8.820;2023-12-14T06:26:34;2.27;;;1.10;;
70967;SDS011;58629;48.808;8.820;2023-12-14T06:29:00;2.37;;;1.20;;
70967;SDS011;58629;48.808;8.820;2023-12-14T06:31:25;2.70;;;1.33;;
70967;SDS011;58629;48.808;8.820;2023-12-14T06:33:50;2.13;;;1.00;;
70967;SDS011;58629;48.808;8.820;2023-12-14T06:36:16;1.63;;;1.00;;
70967;SDS011;58629;48.808;8.820;2023-12-14T06:38:44;1.98;;;1.02;;
70967;SDS011;58629;48.808;8.820;2023-12-14T06:41:20;2.30;;;1.00;;
70967;SDS011;58629;48.808;8.820;2023-12-14T06:43:49;1.23;;;0.67;;
70967;SDS011;58629;48.808;8.820;2023-12-14T06:46:15;1.38;;;0.80;;
70967;SDS011;58629;48.808;8.820;2023-12-14T06:48:41;1.40;;;0.80;;
70967;SDS011;58629;48.808;8.820;2023-12-14T06:51:07;1.57;;;0.90;;
70967;SDS011;58629;48.808;8.820;2023-12-14T06:53:33;0.93;;;0.70;;
70967;SDS011;58629;48.808;8.820;2023-12-14T06:55:59;1.02;;;0.65;;
70967;SDS011;58629;48.808;8.820;2023-12-14T06:58:25;1.30;;;0.70;;
70967;SDS011;58629;48.808;8.820;2023-12-14T07:00:50;0.90;;;0.70;;
70967;SDS011;58629;48.808;8.820;2023-12-14T07:03:16;0.90;;;0.60;;
70967;SDS011;58629;48.808;8.820;2023-12-14T07:05:41;0.77;;;0.50;;
70967;SDS011;58629;48.808;8.820;2023-12-14T07:08:06;0.83;;;0.40;;
70967;SDS011;58629;48.808;8.820;2023-12-14T07:10:32;0.57;;;0.30;;
70967;SDS011;58629;48.808;8.820;2023-12-14T07:12:57;0.70;;;0.40;;
70967;SDS011;58629;48.808;8.820;2023-12-14T07:15:23;0.80;;;0.50;;
70967;SDS011;58629;48.808;8.820;2023-12-14T07:17:49;0.73;;;0.43;;
70967;SDS011;58629;48.808;8.820;2023-12-14T07:20:14;0.80;;;0.40;;
70967;SDS011;58629;48.808;8.820;2023-12-14T07:22:40;0.60;;;0.32;;
70967;SDS011;58629;48.808;8.820;2023-12-14T07:25:06;0.60;;;0.40;;
70967;SDS011;58629;48.808;8.820;2023-12-14T07:27:33;0.98;;;0.50;;
70967;SDS011;58629;48.808;8.820;2023-12-14T07:29:58;0.70;;;0.43;;
70967;SDS011;58629;48.808;8.820;2023-12-14T07:32:23;0.82;;;0.40;;
70967;SDS011;58629;48.808;8.820;2023-12-14T07:34:49;0.40;;;0.20;;
70967;SDS011;58629;48.808;8.820;2023-12-14T07:37:14;0.60;;;0.23;;
70967;SDS011;58629;48.808;8.820;2023-12-14T07:39:40;0.50;;;0.40;;
70967;SDS011;58629;48.808;8.820;2023-12-14T07:42:05;0.70;;;0.40;;
70967;SDS011;58629;48.808;8.820;2023-12-14T07:44:30;1.20;;;0.80;;
70967;SDS011;58629;48.808;8.820;2023-12-14T07:46:56;1.90;;;0.90;;
70967;SDS011;58629;48.808;8.820;2023-12-14T07:49:24;1.40;;;0.90;;
70967;SDS011;58629;48.808;8.820;2023-12-14T07:51:50;1.20;;;0.80;;
70967;SDS011;58629;48.808;8.820;2023-12-14T07:54:16;1.67;;;1.10;;
70967;SDS011;58629;48.808;8.820;2023-12-14T07:56:42;2.00;;;0.97;;
70967;SDS011;58629;48.808;8.820;2023-12-14T07:59:07;1.93;;;1.10;;
70967;SDS011;58629;48.808;8.820;2023-12-14T08:01:36;5.40;;;2.97;;
70967;SDS011;58629;48.808;8.820;2023-12-14T08:04:02;6.32;;;3.70;;
70967;SDS011;58629;48.808;8.820;2023-12-14T08:06:27;5.85;;;3.10;;
70967;SDS011;58629;48.808;8.820;2023-12-14T08:08:53;6.13;;;3.30;;
70967;SDS011;58629;48.808;8.820;2023-12-14T08:11:19;6.00;;;3.33;;
70967;SDS011;58629;48.808;8.820;2023-12-14T08:13:44;6.90;;;3.60;;
70967;SDS011;58629;48.808;8.820;2023-12-14T08:16:10;8.97;;;3.90;;
70967;SDS011;58629;48.808;8.820;2023-12-14T08:18:38;8.80;;;4.10;;
70967;SDS011;58629;48.808;8.820;2023-12-14T08:21:03;7.57;;;4.00;;
70967;SDS011;58629;48.808;8.820;2023-12-14T08:23:29;7.45;;;4.00;;
70967;SDS011;58629;48.808;8.820;2023-12-14T08:25:55;5.77;;;3.00;;
70967;SDS011;58629;48.808;8.820;2023-12-14T08:28:23;5.18;;;2.90;;
70967;SDS011;58629;48.808;8.820;2023-12-14T08:30:49;4.40;;;2.65;;
70967;SDS011;58629;48.808;8.820;2023-12-14T08:33:15;4.57;;;2.63;;
70967;SDS011;58629;48.808;8.820;2023-12-14T08:35:40;3.67;;;2.10;;
70967;SDS011;58629;48.808;8.820;2023-12-14T08:38:06;3.33;;;2.10;;
70967;SDS011;58629;48.808;8.820;2023-12-14T08:40:31;5.65;;;3.33;;
70967;SDS011;58629;48.808;8.820;2023-12-14T08:42:57;4.90;;;2.70;;
70967;SDS011;58629;48.808;8.820;2023-12-14T08:45:22;6.70;;;3.70;;
70967;SDS011;58629;48.808;8.820;2023-12-14T08:47:48;6.10;;;3.50;;
70967;SDS011;58629;48.808;8.820;2023-12-14T08:50:13;5.68;;;3.33;;
70967;SDS011;58629;48.808;8.820;2023-12-14T08:52:38;6.88;;;3.58;;
70967;SDS011;58629;48.808;8.820;2023-12-14T08:55:04;7.03;;;3.37;;
70967;SDS011;58629;48.808;8.820;2023-12-14T08:57:30;6.80;;;3.30;;
70967;SDS011;58629;48.808;8.820;2023-12-14T08:59:56;7.10;;;3.05;;
70967;SDS011;58629;48.808;8.820;2023-12-14T09:02:21;7.45;;;3.63;;
70967;SDS011;58629;48.808;8.820;2023-12-14T09:04:47;7.13;;;3.40;;
70967;SDS011;58629;48.808;8.820;2023-12-14T09:07:12;6.50;;;3.33;;
70967;SDS011;58629;48.808;8.820;2023-12-14T09:09:37;8.10;;;3.30;;
70967;SDS011;58629;48.808;8.820;2023-12-14T09:12:03;6.97;;;3.60;;
70967;SDS011;58629;48.808;8.820;2023-12-14T09:14:28;7.63;;;3.63;;
70967;SDS011;58629;48.808;8.820;2023-12-14T09:16:54;6.67;;;3.23;;
70967;SDS011;58629;48.808;8.820;2023-12-14T09:19:20;6.63;;;3.47;;
70967;SDS011;58629;48.808;8.820;2023-12-14T09:21:45;6.77;;;3.40;;
70967;SDS011;58629;48.808;8.820;2023-12-14T09:24:11;4.00;;;2.20;;
70967;SDS011;58629;48.808;8.820;2023-12-14T09:26:36;6.37;;;2.80;;
70967;SDS011;58629;48.808;8.820;2023-12-14T09:29:01;3.47;;;2.20;;
70967;SDS011;58629;48.808;8.820;2023-12-14T09:31:27;4.63;;;2.60;;
70967;SDS011;58629;48.808;8.820;2023-12-14T09:33:53;6.57;;;3.17;;
70967;SDS011;58629;48.808;8.820;2023-12-14T09:36:18;5.63;;;3.00;;
70967;SDS011;58629;48.808;8.820;2023-12-14T09:38:44;4.67;;;2.67;;
70967;SDS011;58629;48.808;8.820;2023-12-14T09:41:10;5.07;;;2.45;;
70967;SDS011;58629;48.808;8.820;2023-12-14T09:43:37;3.10;;;2.00;;
70967;SDS011;58629;48.808;8.820;2023-12-14T09:46:02;3.75;;;2.10;;
70967;SDS011;58629;48.808;8.820;2023-12-14T09:48:28;2.92;;;1.83;;
70967;SDS011;58629;48.808;8.820;2023-12-14T09:50:54;5.07;;;2.80;;
70967;SDS011;58629;48.808;8.820;2023-12-14T09:53:20;4.40;;;2.73;;
70967;SDS011;58629;48.808;8.820;2023-12-14T09:55:46;4.68;;;2.30;;
70967;SDS011;58629;48.808;8.820;2023-12-14T09:58:11;3.70;;;2.23;;
70967;SDS011;58629;48.808;8.820;2023-12-14T10:00:38;3.78;;;2.40;;
70967;SDS011;58629;48.808;8.820;2023-12-14T10:03:18;4.00;;;2.20;;
70967;SDS011;58629;48.808;8.820;2023-12-14T10:05:57;3.20;;;1.80;;
70967;SDS011;58629;48.808;8.820;2023-12-14T10:08:23;2.47;;;1.63;;
70967;SDS011;58629;48.808;8.820;2023-12-14T10:10:53;3.30;;;2.10;;
70967;SDS011;58629;48.808;8.820;2023-12-14T10:13:21;3.00;;;2.00;;
70967;SDS011;58629;48.808;8.820;2023-12-14T10:16:00;4.67;;;2.27;;
70967;SDS011;58629;48.808;8.820;2023-12-14T10:18:25;3.47;;;2.13;;
70967;SDS011;58629;48.808;8.820;2023-12-14T10:20:51;4.73;;;3.00;;
70967;SDS011;58629;48.808;8.820;2023-12-14T10:23:17;3.75;;;2.60;;
70967;SDS011;58629;48.808;8.820;2023-12-14T10:25:43;5.13;;;2.50;;
70967;SDS011;58629;48.808;8.820;2023-12-14T10:28:12;7.10;;;2.50;;
70967;SDS011;58629;48.808;8.820;2023-12-14T10:30:41;4.10;;;2.55;;
70967;SDS011;58629;48.808;8.820;2023-12-14T10:33:07;3.50;;;2.33;;
70967;SDS011;58629;48.808;8.820;2023-12-14T10:35:32;3.58;;;2.30;;
70967;SDS011;58629;48.808;8.820;2023-12-14T10:37:58;3.63;;;2.33;;
70967;SDS011;58629;48.808;8.820;2023-12-14T10:40:28;5.32;;;2.28;;
70967;SDS011;58629;48.808;8.820;2023-12-14T10:42:54;4.35;;;2.17;;
70967;SDS011;58629;48.808;8.820;2023-12-14T10:45:24;4.25;;;2.50;;
70967;SDS011;58629;48.808;8.820;2023-12-14T10:47:54;4.70;;;2.90;;
70967;SDS011;58629;48.808;8.820;2023-12-14T10:50:21;4.35;;;2.80;;
70967;SDS011;58629;48.808;8.820;2023-12-14T10:52:47;5.97;;;2.60;;
70967;SDS011;58629;48.808;8.820;2023-12-14T10:55:24;6.10;;;2.90;;
70967;SDS011;58629;48.808;8.820;2023-12-14T10:57:53;7.25;;;3.22;;
70967;SDS011;58629;48.808;8.820;2023-12-14T11:00:18;5.87;;;2.90;;
70967;SDS011;58629;48.808;8.820;2023-12-14T11:02:47;4.47;;;2.65;;
70967;SDS011;58629;48.808;8.820;2023-12-14T11:05:13;4.50;;;2.40;;
70967;SDS011;58629;48.808;8.820;2023-12-14T11:07:54;4.97;;;2.50;;
70967;SDS011;58629;48.808;8.820;2023-12-14T11:10:26;4.57;;;2.70;;
70967;SDS011;58629;48.808;8.820;2023-12-14T11:13:03;5.65;;;2.65;;
70967;SDS011;58629;48.808;8.820;2023-12-14T11:15:34;6.40;;;3.30;;
70967;SDS011;58629;48.808;8.820;2023-12-14T11:23:10;6.20;;;3.10;;
70967;SDS011;58629;48.808;8.820;2023-12-14T11:25:41;5.13;;;3.45;;
70967;SDS011;58629;48.808;8.820;2023-12-14T11:28:07;5.38;;;3.28;;
70967;SDS011;58629;48.808;8.820;2023-12-14T11:30:36;6.70;;;3.47;;
70967;SDS011;58629;48.808;8.820;2023-12-14T11:33:02;4.50;;;2.70;;
70967;SDS011;58629;48.808;8.820;2023-12-14T11:35:28;4.82;;;3.00;;
70967;SDS011;58629;48.808;8.820;2023-12-14T11:37:54;4.32;;;2.83;;
70967;SDS011;58629;48.808;8.820;2023-12-14T11:40:22;6.07;;;3.50;;
70967;SDS011;58629;48.808;8.820;2023-12-14T11:43:04;6.07;;;3.00;;
70967;SDS011;58629;48.808;8.820;2023-12-14T11:45:42;6.13;;;3.20;;
70967;SDS011;58629;48.808;8.820;2023-12-14T11:48:08;5.83;;;2.80;;
70967;SDS011;58629;48.808;8.820;2023-12-14T11:50:36;5.47;;;2.97;;
70967;SDS011;58629;48.808;8.820;2023-12-14T11:53:03;5.95;;;3.15;;
70967;SDS011;58629;48.808;8.820;2023-12-14T11:55:29;5.50;;;3.28;;
70967;SDS011;58629;48.808;8.820;2023-12-14T11:57:55;5.07;;;2.80;;
70967;SDS011;58629;48.808;8.820;2023-12-14T12:00:25;4.67;;;2.30;;
70967;SDS011;58629;48.808;8.820;2023-12-14T12:02:52;4.18;;;2.13;;
70967;SDS011;58629;48.808;8.820;2023-12-14T12:05:17;3.47;;;2.10;;
70967;SDS011;58629;48.808;8.820;2023-12-14T12:07:47;3.40;;;2.00;;
70967;SDS011;58629;48.808;8.820;2023-12-14T12:10:12;3.25;;;2.13;;
70967;SDS011;58629;48.808;8.820;2023-12-14T12:12:38;4.27;;;2.20;;
70967;SDS011;58629;48.808;8.820;2023-12-14T12:15:03;3.25;;;1.60;;
70967;SDS011;58629;48.808;8.820;2023-12-14T12:17:29;2.97;;;1.60;;
70967;SDS011;58629;48.808;8.820;2023-12-14T12:19:58;2.67;;;1.55;;
70967;SDS011;58629;48.808;8.820;2023-12-14T12:22:24;2.60;;;1.70;;
70967;SDS011;58629;48.808;8.820;2023-12-14T12:24:49;2.87;;;1.90;;
70967;SDS011;58629;48.808;8.820;2023-12-14T12:27:14;3.27;;;2.00;;
70967;SDS011;58629;48.808;8.820;2023-12-14T12:29:40;4.05;;;2.10;;
70967;SDS011;58629;48.808;8.820;2023-12-14T12:32:05;4.53;;;2.20;;
70967;SDS011;58629;48.808;8.820;2023-12-14T12:34:30;3.57;;;1.90;;
70967;SDS011;58629;48.808;8.820;2023-12-14T12:36:56;3.63;;;2.00;;
70967;SDS011;58629;48.808;8.820;2023-12-14T12:39:22;4.03;;;1.80;;
70967;SDS011;58629;48.808;8.820;2023-12-14T12:41:48;3.90;;;2.00;;
70967;SDS011;58629;48.808;8.820;2023-12-14T12:44:13;4.73;;;2.10;;
70967;SDS011;58629;48.808;8.820;2023-12-14T12:46:38;4.00;;;2.00;;
70967;SDS011;58629;48.808;8.820;2023-12-14T12:49:04;4.47;;;2.50;;
70967;SDS011;58629;48.808;8.820;2023-12-14T12:51:30;3.83;;;2.10;;
70967;SDS011;58629;48.808;8.820;2023-12-14T12:53:59;5.47;;;1.98;;
70967;SDS011;58629;48.808;8.820;2023-12-14T12:56:25;2.90;;;1.60;;
70967;SDS011;58629;48.808;8.820;2023-12-14T12:58:52;3.63;;;1.40;;
70967;SDS011;58629;48.808;8.820;2023-12-14T13:01:22;2.97;;;1.67;;
70967;SDS011;58629;48.808;8.820;2023-12-14T13:06:18;5.78;;;2.70;;
70967;SDS011;58629;48.808;8.820;2023-12-14T13:08:43;6.33;;;3.20;;
70967;SDS011;58629;48.808;8.820;2023-12-14T13:11:08;6.10;;;2.60;;
70967;SDS011;58629;48.808;8.820;2023-12-14T13:13:34;5.17;;;2.90;;
70967;SDS011;58629;48.808;8.820;2023-12-14T13:15:59;5.70;;;2.93;;
70967;SDS011;58629;48.808;8.820;2023-12-14T13:18:25;6.65;;;3.40;;
70967;SDS011;58629;48.808;8.820;2023-12-14T13:20:50;6.97;;;2.20;;
70967;SDS011;58629;48.808;8.820;2023-12-14T13:23:16;4.63;;;2.57;;
70967;SDS011;58629;48.808;8.820;2023-12-14T13:25:41;4.20;;;2.60;;
70967;SDS011;58629;48.808;8.820;2023-12-14T13:28:06;5.40;;;2.70;;
70967;SDS011;58629;48.808;8.820;2023-12-14T13:30:32;7.25;;;3.22;;
70967;SDS011;58629;48.808;8.820;2023-12-14T13:32:57;6.27;;;3.30;;
70967;SDS011;58629;48.808;8.820;2023-12-14T13:35:23;6.80;;;3.37;;
70967;SDS011;58629;48.808;8.820;2023-12-14T13:37:49;8.23;;;3.85;;
70967;SDS011;58629;48.808;8.820;2023-12-14T13:40:15;7.22;;;3.63;;
70967;SDS011;58629;48.808;8.820;2023-12-14T13:42:41;8.93;;;3.97;;
70967;SDS011;58629;48.808;8.820;2023-12-14T13:45:07;9.27;;;4.20;;
70967;SDS011;58629;48.808;8.820;2023-12-14T13:47:33;9.68;;;4.85;;
70967;SDS011;58629;48.808;8.820;2023-12-14T13:49:58;11.53;;;5.03;;
70967;SDS011;58629;48.808;8.820;2023-12-14T13:52:23;11.20;;;5.20;;
70967;SDS011;58629;48.808;8.820;2023-12-14T13:54:49;10.90;;;5.47;;
70967;SDS011;58629;48.808;8.820;2023-12-14T13:57:14;9.20;;;4.60;;
70967;SDS011;58629;48.808;8.820;2023-12-14T13:59:40;6.27;;;3.00;;
70967;SDS011;58629;48.808;8.820;2023-12-14T14:02:05;4.30;;;2.30;;
70967;SDS011;58629;48.808;8.820;2023-12-14T14:04:30;3.40;;;1.40;;
70967;SDS011;58629;48.808;8.820;2023-12-14T14:06:55;2.87;;;1.50;;
70967;SDS011;58629;48.808;8.820;2023-12-14T14:09:21;2.83;;;1.60;;
70967;SDS011;58629;48.808;8.820;2023-12-14T14:11:47;3.50;;;1.60;;
70967;SDS011;58629;48.808;8.820;2023-12-14T14:14:14;3.47;;;1.75;;
70967;SDS011;58629;48.808;8.820;2023-12-14T14:16:40;4.20;;;2.13;;
70967;SDS011;58629;48.808;8.820;2023-12-14T14:19:05;4.57;;;2.40;;
70967;SDS011;58629;48.808;8.820;2023-12-14T14:21:31;5.07;;;2.40;;
70967;SDS011;58629;48.808;8.820;2023-12-14T14:23:56;5.53;;;2.53;;
70967;SDS011;58629;48.808;8.820;2023-12-14T14:26:21;6.50;;;2.95;;
70967;SDS011;58629;48.808;8.820;2023-12-14T14:28:47;6.00;;;2.77;;
70967;SDS011;58629;48.808;8.820;2023-12-14T14:31:12;6.73;;;3.07;;
70967;SDS011;58629;48.808;8.820;2023-12-14T14:33:38;6.00;;;2.80;;
70967;SDS011;58629;48.808;8.820;2023-12-14T14:36:03;7.87;;;3.30;;
70967;SDS011;58629;48.808;8.820;2023-12-14T14:38:30;7.15;;;3.30;;
70967;SDS011;58629;48.808;8.820;2023-12-14T14:40:56;7.80;;;3.65;;
70967;SDS011;58629;48.808;8.820;2023-12-14T14:43:21;5.97;;;2.90;;
70967;SDS011;58629;48.808;8.820;2023-12-14T14:45:47;5.60;;;2.70;;
70967;SDS011;58629;48.808;8.820;2023-12-14T14:48:13;7.20;;;3.40;;